createdAt,value
2017-03-10T00:00:41.956Z,6.79
2017-03-10T00:01:42.611Z,6.79
2017-03-10T00:02:43.271Z,6.88
2017-03-10T00:03:43.959Z,6.89
2017-03-10T00:04:44.617Z,6.95
2017-03-10T00:05:45.322Z,6.96
2017-03-10T00:06:45.983Z,6.85
2017-03-10T00:07:46.650Z,6.93
2017-03-10T00:08:47.302Z,6.85
2017-03-10T00:09:47.957Z,6.85
2017-03-10T00:10:48.621Z,6.89
2017-03-10T00:11:49.286Z,6.96
2017-03-10T00:12:49.969Z,6.93
2017-03-10T00:13:50.633Z,6.88
2017-03-10T00:14:51.301Z,6.96
2017-03-10T00:15:51.960Z,6.97
2017-03-10T00:16:52.605Z,6.84
2017-03-10T00:17:53.267Z,6.92
2017-03-10T00:18:53.940Z,7
2017-03-10T00:19:54.629Z,6.87
2017-03-10T00:20:55.287Z,6.89
2017-03-10T00:21:56.065Z,6.95
2017-03-10T00:22:56.716Z,6.95
2017-03-10T00:23:57.380Z,6.96
2017-03-10T00:24:58.053Z,6.96
2017-03-10T00:25:58.700Z,6.97
2017-03-10T00:26:59.373Z,6.95
2017-03-10T00:28:00.019Z,6.99
2017-03-10T00:29:00.674Z,6.99
2017-03-10T00:30:01.344Z,6.96
2017-03-10T00:31:01.994Z,7
2017-03-10T00:32:02.650Z,6.89
2017-03-10T00:33:03.309Z,6.93
2017-03-10T00:34:03.972Z,6.97
2017-03-10T00:35:04.647Z,6.97
2017-03-10T00:36:05.296Z,6.95
2017-03-10T00:37:05.951Z,6.99
2017-03-10T00:38:06.619Z,6.95
2017-03-10T00:39:07.280Z,6.93
2017-03-10T00:40:07.960Z,6.99
2017-03-10T00:41:08.627Z,6.97
2017-03-10T00:42:09.299Z,7
2017-03-10T00:43:09.962Z,6.96
2017-03-10T00:44:10.663Z,6.92
2017-03-10T00:45:11.337Z,7
2017-03-10T00:46:12.005Z,6.93
2017-03-10T00:47:12.671Z,6.96
2017-03-10T00:48:13.326Z,6.95
2017-03-10T00:49:13.965Z,6.96
2017-03-10T00:50:14.635Z,6.96
2017-03-10T00:51:15.281Z,6.97
2017-03-10T00:52:15.938Z,6.93
2017-03-10T00:53:16.589Z,7.06
2017-03-10T00:54:17.272Z,6.97
2017-03-10T00:55:17.956Z,6.93
2017-03-10T00:56:18.611Z,6.99
2017-03-10T00:57:19.282Z,6.93
2017-03-10T00:58:19.938Z,7.02
2017-03-10T00:59:20.595Z,6.95
2017-03-10T01:00:21.279Z,6.95
2017-03-10T01:01:21.927Z,6.96
2017-03-10T01:02:22.605Z,6.99
2017-03-10T01:03:23.284Z,6.95
2017-03-10T01:04:23.942Z,6.97
2017-03-10T01:05:24.603Z,6.95
2017-03-10T01:06:25.279Z,7.03
2017-03-10T01:07:25.955Z,7.02
2017-03-10T01:08:26.632Z,6.95
2017-03-10T01:09:27.346Z,7.06
2017-03-10T01:10:27.985Z,7.03
2017-03-10T01:11:28.650Z,7.03
2017-03-10T01:12:29.306Z,7.03
2017-03-10T01:13:29.977Z,7.06
2017-03-10T01:14:30.638Z,7.05
2017-03-10T01:15:31.292Z,7.06
2017-03-10T01:16:31.949Z,6.93
2017-03-10T01:17:32.597Z,7.1
2017-03-10T01:18:33.303Z,7.06
2017-03-10T01:19:33.978Z,7.05
2017-03-10T01:20:34.668Z,7.05
2017-03-10T01:21:35.320Z,6.95
2017-03-10T01:22:35.991Z,7
2017-03-10T01:23:36.674Z,6.96
2017-03-10T01:24:37.333Z,7.07
2017-03-10T01:25:38.006Z,7.06
2017-03-10T01:26:38.688Z,6.95
2017-03-10T01:27:39.350Z,7.06
2017-03-10T01:28:40.020Z,7.11
2017-03-10T01:29:40.689Z,7.1
2017-03-10T01:30:41.353Z,7.11
2017-03-10T01:31:42.005Z,7.15
2017-03-10T01:32:42.662Z,7.1
2017-03-10T01:33:43.333Z,7.06
2017-03-10T01:34:43.968Z,7.13
2017-03-10T01:35:44.645Z,7.11
2017-03-10T01:36:45.298Z,7.06
2017-03-10T01:37:45.979Z,7.13
2017-03-10T01:38:46.703Z,7.06
2017-03-10T01:39:47.397Z,7.02
2017-03-10T01:40:48.053Z,7.1
2017-03-10T01:41:48.706Z,7.07
2017-03-10T01:42:49.382Z,7.11
2017-03-10T01:43:50.056Z,7.11
2017-03-10T01:44:50.723Z,7.06
2017-03-10T01:45:51.402Z,7.11
2017-03-10T01:46:52.070Z,7.05
2017-03-10T01:47:52.741Z,7.07
2017-03-10T01:48:53.421Z,7.07
2017-03-10T01:49:54.089Z,7.07
2017-03-10T01:50:54.765Z,7.07
2017-03-10T01:51:55.434Z,7.1
2017-03-10T01:52:56.107Z,7.13
2017-03-10T01:53:56.753Z,7.07
2017-03-10T01:54:57.423Z,7.11
2017-03-10T01:55:58.088Z,7.05
2017-03-10T01:56:58.743Z,7.13
2017-03-10T01:57:59.419Z,7.07
2017-03-10T01:59:00.090Z,7.07
2017-03-10T02:00:00.731Z,6.93
2017-03-10T02:01:01.492Z,6.95
2017-03-10T02:02:02.164Z,6.96
2017-03-10T02:03:02.832Z,6.95
2017-03-10T02:04:03.500Z,6.96
2017-03-10T02:05:04.175Z,6.97
2017-03-10T02:06:04.958Z,6.99
2017-03-10T02:07:05.621Z,6.97
2017-03-10T02:08:06.291Z,6.96
2017-03-10T02:09:06.945Z,7.02
2017-03-10T02:10:07.620Z,6.97
2017-03-10T02:11:08.286Z,6.92
2017-03-10T02:12:08.951Z,6.99
2017-03-10T02:13:09.626Z,6.97
2017-03-10T02:14:10.285Z,7
2017-03-10T02:15:10.949Z,6.99
2017-03-10T02:16:11.593Z,6.99
2017-03-10T02:17:12.255Z,6.93
2017-03-10T02:18:12.911Z,6.93
2017-03-10T02:19:13.562Z,6.99
2017-03-10T02:20:14.335Z,6.95
2017-03-10T02:21:14.957Z,6.95
2017-03-10T02:22:15.622Z,6.97
2017-03-10T02:23:16.281Z,6.97
2017-03-10T02:24:16.946Z,6.96
2017-03-10T02:25:17.619Z,6.95
2017-03-10T02:26:18.295Z,6.95
2017-03-10T02:27:18.965Z,6.97
2017-03-10T02:28:19.637Z,6.93
2017-03-10T02:29:20.309Z,6.93
2017-03-10T02:30:20.982Z,6.93
2017-03-10T02:31:21.664Z,6.97
2017-03-10T02:32:22.328Z,6.96
2017-03-10T02:33:23.002Z,6.87
2017-03-10T02:34:23.667Z,6.99
2017-03-10T02:35:24.340Z,6.93
2017-03-10T02:36:25.014Z,6.97
2017-03-10T02:37:25.691Z,6.96
2017-03-10T02:38:26.372Z,6.97
2017-03-10T02:39:27.032Z,7.02
2017-03-10T02:40:27.693Z,6.97
2017-03-10T02:41:28.344Z,7.05
2017-03-10T02:42:29.011Z,6.96
2017-03-10T02:43:29.672Z,6.99
2017-03-10T02:44:30.331Z,6.88
2017-03-10T02:45:30.999Z,6.99
2017-03-10T02:46:31.665Z,7.05
2017-03-10T02:47:32.321Z,6.96
2017-03-10T02:48:32.991Z,6.96
2017-03-10T02:49:33.659Z,6.97
2017-03-10T02:50:34.322Z,6.92
2017-03-10T02:51:35.006Z,6.96
2017-03-10T02:52:35.679Z,7.03
2017-03-10T02:53:36.343Z,7.06
2017-03-10T02:54:36.973Z,6.96
2017-03-10T02:55:37.633Z,6.95
2017-03-10T02:56:38.284Z,6.93
2017-03-10T02:57:38.937Z,6.97
2017-03-10T02:58:39.612Z,6.96
2017-03-10T02:59:40.278Z,6.97
2017-03-10T03:00:40.931Z,7.02
2017-03-10T03:01:41.591Z,6.95
2017-03-10T03:02:42.258Z,6.93
2017-03-10T03:03:42.910Z,7
2017-03-10T03:04:43.586Z,6.95
2017-03-10T03:05:44.257Z,6.99
2017-03-10T03:06:44.920Z,6.96
2017-03-10T03:07:45.573Z,6.97
2017-03-10T03:08:46.230Z,6.95
2017-03-10T03:09:46.909Z,6.92
2017-03-10T03:10:47.533Z,6.95
2017-03-10T03:11:48.204Z,6.97
2017-03-10T03:12:48.876Z,7
2017-03-10T03:13:49.533Z,6.96
2017-03-10T03:14:50.189Z,7
2017-03-10T03:15:50.843Z,6.95
2017-03-10T03:16:51.504Z,6.95
2017-03-10T03:17:52.176Z,7
2017-03-10T03:18:52.848Z,6.96
2017-03-10T03:19:53.508Z,7
2017-03-10T03:20:54.177Z,6.96
2017-03-10T03:21:54.829Z,6.96
2017-03-10T03:22:55.484Z,6.89
2017-03-10T03:23:56.121Z,6.97
2017-03-10T03:24:56.778Z,6.95
2017-03-10T03:25:57.432Z,6.92
2017-03-10T03:26:58.078Z,6.99
2017-03-10T03:27:58.737Z,6.92
2017-03-10T03:28:59.390Z,6.97
2017-03-10T03:30:00.065Z,6.99
2017-03-10T03:31:00.807Z,7.13
2017-03-10T03:32:01.463Z,7.03
2017-03-10T03:33:02.107Z,7.06
2017-03-10T03:34:02.770Z,6.97
2017-03-10T03:35:03.425Z,7.07
2017-03-10T03:36:04.083Z,7.06
2017-03-10T03:37:04.745Z,7.05
2017-03-10T03:38:05.400Z,7.06
2017-03-10T03:39:06.085Z,6.96
2017-03-10T03:40:06.731Z,7.13
2017-03-10T03:41:07.392Z,7.11
2017-03-10T03:42:08.047Z,6.97
2017-03-10T03:43:08.697Z,7.06
2017-03-10T03:44:09.388Z,7.06
2017-03-10T03:45:10.056Z,7.1
2017-03-10T03:46:10.726Z,6.95
2017-03-10T03:47:11.389Z,6.95
2017-03-10T03:48:12.162Z,7
2017-03-10T03:49:12.832Z,6.95
2017-03-10T03:50:13.576Z,6.93
2017-03-10T03:51:14.290Z,6.97
2017-03-10T03:52:14.951Z,6.97
2017-03-10T03:53:15.611Z,7.03
2017-03-10T03:54:16.281Z,6.99
2017-03-10T03:55:16.946Z,6.95
2017-03-10T03:56:17.610Z,7
2017-03-10T03:57:18.287Z,6.96
2017-03-10T03:58:18.935Z,7.03
2017-03-10T03:59:19.599Z,6.99
2017-03-10T04:00:20.302Z,6.93
2017-03-10T04:01:20.971Z,6.92
2017-03-10T04:02:21.644Z,6.92
2017-03-10T04:03:22.323Z,6.96
2017-03-10T04:04:22.945Z,6.96
2017-03-10T04:05:23.606Z,7.03
2017-03-10T04:06:24.256Z,6.97
2017-03-10T04:07:24.918Z,6.93
2017-03-10T04:08:25.573Z,6.99
2017-03-10T04:09:26.324Z,6.95
2017-03-10T04:10:26.981Z,6.99
2017-03-10T04:11:27.643Z,6.95
2017-03-10T04:12:28.287Z,6.95
2017-03-10T04:13:28.946Z,6.96
2017-03-10T04:14:29.608Z,7.07
2017-03-10T04:15:30.253Z,7.02
2017-03-10T04:16:30.916Z,6.89
2017-03-10T04:17:31.576Z,6.92
2017-03-10T04:18:32.295Z,7.06
2017-03-10T04:19:32.980Z,7.05
2017-03-10T04:20:33.628Z,6.97
2017-03-10T04:21:34.299Z,6.97
2017-03-10T04:22:34.953Z,7
2017-03-10T04:23:35.625Z,6.95
2017-03-10T04:24:36.309Z,6.97
2017-03-10T04:25:36.987Z,7.05
2017-03-10T04:26:37.696Z,6.95
2017-03-10T04:27:38.372Z,7.06
2017-03-10T04:28:39.019Z,6.97
2017-03-10T04:29:39.675Z,7.05
2017-03-10T04:30:40.323Z,6.96
2017-03-10T04:31:40.991Z,7.02
2017-03-10T04:32:41.648Z,7.03
2017-03-10T04:33:42.312Z,7.03
2017-03-10T04:34:42.996Z,7.03
2017-03-10T04:35:43.646Z,7.06
2017-03-10T04:36:44.321Z,7.05
2017-03-10T04:37:44.967Z,7.07
2017-03-10T04:38:45.653Z,7.07
2017-03-10T04:39:46.305Z,7.11
2017-03-10T04:40:46.957Z,7.06
2017-03-10T04:41:47.617Z,7.07
2017-03-10T04:42:48.268Z,7.07
2017-03-10T04:43:48.916Z,7.07
2017-03-10T04:44:49.560Z,7.05
2017-03-10T04:45:50.253Z,7.11
2017-03-10T04:46:50.920Z,7.13
2017-03-10T04:47:51.571Z,7.11
2017-03-10T04:48:52.254Z,7.02
2017-03-10T04:49:52.908Z,7.05
2017-03-10T04:50:53.567Z,7.14
2017-03-10T04:51:54.228Z,7.18
2017-03-10T04:52:54.894Z,7.18
2017-03-10T04:53:55.608Z,7.2
2017-03-10T04:54:56.269Z,7.18
2017-03-10T04:55:56.921Z,7.24
2017-03-10T04:56:57.591Z,7.18
2017-03-10T04:57:58.235Z,7.2
2017-03-10T04:58:58.929Z,7.21
2017-03-10T04:59:59.608Z,7.31
2017-03-10T05:01:00.272Z,7.18
2017-03-10T05:02:00.938Z,7.14
2017-03-10T05:03:01.593Z,7.23
2017-03-10T05:04:02.262Z,7.17
2017-03-10T05:05:02.931Z,7.2
2017-03-10T05:06:03.592Z,7.14
2017-03-10T05:07:04.258Z,7.18
2017-03-10T05:08:04.933Z,7.1
2017-03-10T05:09:05.614Z,7.11
2017-03-10T05:10:06.262Z,7.07
2017-03-10T05:11:06.920Z,7.17
2017-03-10T05:12:07.589Z,7.13
2017-03-10T05:13:08.251Z,7.07
2017-03-10T05:14:08.909Z,7.1
2017-03-10T05:15:09.560Z,7.17
2017-03-10T05:16:10.215Z,7.2
2017-03-10T05:17:10.886Z,7.15
2017-03-10T05:18:11.558Z,7.18
2017-03-10T05:19:12.222Z,7.13
2017-03-10T05:20:12.896Z,7.15
2017-03-10T05:21:13.571Z,7.18
2017-03-10T05:22:14.253Z,7.15
2017-03-10T05:23:14.907Z,7.2
2017-03-10T05:24:15.594Z,7.2
2017-03-10T05:25:16.235Z,7.18
2017-03-10T05:26:16.892Z,7.14
2017-03-10T05:27:17.582Z,7.15
2017-03-10T05:28:18.313Z,7.24
2017-03-10T05:29:18.976Z,7.2
2017-03-10T05:30:19.641Z,7.14
2017-03-10T05:31:20.292Z,7.13
2017-03-10T05:32:20.968Z,7.17
2017-03-10T05:33:21.613Z,7.25
2017-03-10T05:34:22.260Z,7.23
2017-03-10T05:35:22.919Z,7.14
2017-03-10T05:36:23.561Z,7.2
2017-03-10T05:37:24.222Z,7.14
2017-03-10T05:38:24.891Z,7.23
2017-03-10T05:39:25.552Z,7.21
2017-03-10T05:40:26.210Z,7.14
2017-03-10T05:41:26.858Z,7.11
2017-03-10T05:42:27.566Z,7.15
2017-03-10T05:43:28.232Z,7.14
2017-03-10T05:44:28.892Z,7.17
2017-03-10T05:45:29.565Z,7.11
2017-03-10T05:46:30.234Z,7.06
2017-03-10T05:47:30.873Z,7.14
2017-03-10T05:48:31.523Z,7.11
2017-03-10T05:49:32.208Z,7.1
2017-03-10T05:50:32.863Z,7.07
2017-03-10T05:51:33.521Z,7.07
2017-03-10T05:52:34.186Z,7.07
2017-03-10T05:53:34.829Z,7.14
2017-03-10T05:54:35.483Z,7.11
2017-03-10T05:55:36.181Z,7.2
2017-03-10T05:56:36.838Z,7.2
2017-03-10T05:57:37.520Z,7.15
2017-03-10T05:58:38.161Z,7.14
2017-03-10T05:59:38.825Z,7.03
2017-03-10T06:00:39.484Z,7.17
2017-03-10T06:01:40.163Z,7.13
2017-03-10T06:02:40.816Z,7.11
2017-03-10T06:03:41.468Z,7.05
2017-03-10T06:04:42.125Z,7.14
2017-03-10T06:05:42.798Z,7.14
2017-03-10T06:06:43.466Z,7.17
2017-03-10T06:07:44.177Z,7.17
2017-03-10T06:08:44.816Z,7.18
2017-03-10T06:09:45.463Z,7.15
2017-03-10T06:10:46.129Z,7.17
2017-03-10T06:11:46.785Z,7.2
2017-03-10T06:12:47.502Z,7.21
2017-03-10T06:13:48.150Z,7.2
2017-03-10T06:14:48.820Z,7.18
2017-03-10T06:15:49.476Z,7.25
2017-03-10T06:16:50.133Z,7.15
2017-03-10T06:17:50.786Z,7.17
2017-03-10T06:18:51.436Z,7.18
2017-03-10T06:19:52.107Z,7.28
2017-03-10T06:20:52.778Z,7.24
2017-03-10T06:21:53.425Z,7.23
2017-03-10T06:22:54.068Z,7.24
2017-03-10T06:23:54.729Z,7.21
2017-03-10T06:24:55.379Z,7.23
2017-03-10T06:25:56.034Z,7.28
2017-03-10T06:26:56.698Z,7.31
2017-03-10T06:27:57.367Z,7.25
2017-03-10T06:28:58.046Z,7.32
2017-03-10T06:29:58.725Z,7.29
2017-03-10T06:30:59.400Z,7.31
2017-03-10T06:32:00.077Z,7.31
2017-03-10T06:33:00.768Z,7.31
2017-03-10T06:34:01.453Z,7.29
2017-03-10T06:35:02.096Z,7.21
2017-03-10T06:36:02.778Z,7.24
2017-03-10T06:37:03.464Z,7.29
2017-03-10T06:38:04.145Z,7.24
2017-03-10T06:39:04.812Z,7.25
2017-03-10T06:40:05.506Z,7.36
2017-03-10T06:41:06.173Z,7.24
2017-03-10T06:42:06.828Z,7.24
2017-03-10T06:43:07.499Z,7.28
2017-03-10T06:44:08.538Z,7.21
2017-03-10T06:45:09.180Z,7.2
2017-03-10T06:46:09.829Z,7.23
2017-03-10T06:47:10.471Z,7.21
2017-03-10T06:48:11.170Z,7.33
2017-03-10T06:49:11.812Z,7.33
2017-03-10T06:50:12.481Z,7.31
2017-03-10T06:51:13.158Z,7.29
2017-03-10T06:52:13.825Z,7.36
2017-03-10T06:53:14.469Z,7.28
2017-03-10T06:54:15.133Z,7.38
2017-03-10T06:55:15.788Z,7.29
2017-03-10T06:56:16.465Z,7.32
2017-03-10T06:57:17.114Z,7.36
2017-03-10T06:58:17.767Z,7.32
2017-03-10T06:59:18.423Z,7.36
2017-03-10T07:00:19.080Z,7.29
2017-03-10T07:01:19.770Z,7.32
2017-03-10T07:02:20.435Z,7.35
2017-03-10T07:03:21.088Z,7.33
2017-03-10T07:04:21.756Z,7.36
2017-03-10T07:05:22.406Z,7.32
2017-03-10T07:06:23.095Z,7.36
2017-03-10T07:07:23.758Z,7.38
2017-03-10T07:08:24.472Z,7.36
2017-03-10T07:09:25.214Z,7.36
2017-03-10T07:10:25.875Z,7.39
2017-03-10T07:11:26.534Z,7.32
2017-03-10T07:12:27.200Z,7.35
2017-03-10T07:13:27.898Z,7.4
2017-03-10T07:14:28.559Z,7.29
2017-03-10T07:15:29.237Z,7.39
2017-03-10T07:16:29.909Z,7.32
2017-03-10T07:17:30.943Z,7.35
2017-03-10T07:18:33.259Z,7.32
2017-03-10T07:19:34.837Z,7.32
2017-03-10T07:20:36.552Z,7.39
2017-03-10T07:21:38.504Z,7.43
2017-03-10T07:22:39.249Z,7.36
2017-03-10T07:23:39.915Z,7.4
2017-03-10T07:24:40.611Z,7.47
2017-03-10T07:25:41.335Z,7.47
2017-03-10T07:26:41.997Z,7.38
2017-03-10T07:27:42.678Z,7.36
2017-03-10T07:28:43.358Z,7.39
2017-03-10T07:29:44.018Z,7.47
2017-03-10T07:30:44.798Z,7.33
2017-03-10T07:31:45.475Z,7.45
2017-03-10T07:32:46.139Z,7.39
2017-03-10T07:33:46.826Z,7.42
2017-03-10T07:34:47.485Z,7.43
2017-03-10T07:35:48.141Z,7.43
2017-03-10T07:36:49.201Z,7.47
2017-03-10T07:37:51.202Z,7.47
2017-03-10T07:38:51.901Z,7.47
2017-03-10T07:39:52.587Z,7.5
2017-03-10T07:40:53.246Z,7.5
2017-03-10T07:41:53.906Z,7.47
2017-03-10T07:42:54.556Z,7.51
2017-03-10T07:43:55.213Z,7.48
2017-03-10T07:44:55.903Z,7.54
2017-03-10T07:45:56.582Z,7.53
2017-03-10T07:46:57.236Z,7.72
2017-03-10T07:47:57.945Z,7.66
2017-03-10T07:48:58.594Z,7.63
2017-03-10T07:49:59.259Z,7.73
2017-03-10T07:50:59.932Z,7.88
2017-03-10T07:52:00.591Z,7.73
2017-03-10T07:53:01.264Z,7.76
2017-03-10T07:54:01.910Z,7.85
2017-03-10T07:55:02.576Z,7.93
2017-03-10T07:56:03.226Z,7.97
2017-03-10T07:57:04.005Z,7.94
2017-03-10T07:58:04.786Z,8.01
2017-03-10T07:59:05.466Z,7.9
2017-03-10T08:00:06.128Z,7.9
2017-03-10T08:01:06.781Z,7.88
2017-03-10T08:02:07.445Z,7.95
2017-03-10T08:03:08.115Z,8.01
2017-03-10T08:04:08.886Z,8.03
2017-03-10T08:05:09.566Z,8.03
2017-03-10T08:06:10.489Z,8.03
2017-03-10T08:07:11.167Z,8.09
2017-03-10T08:08:11.835Z,8.03
2017-03-10T08:09:13.572Z,8.1
2017-03-10T08:10:14.353Z,8.05
2017-03-10T08:11:15.451Z,8.12
2017-03-10T08:12:16.214Z,8.12
2017-03-10T08:13:17.009Z,8.12
2017-03-10T08:14:17.839Z,8.15
2017-03-10T08:15:18.554Z,8.3
2017-03-10T08:16:19.941Z,8.3
2017-03-10T08:17:20.721Z,8.27
2017-03-10T08:18:21.514Z,8.42
2017-03-10T08:19:22.685Z,8.34
2017-03-10T08:20:24.311Z,8.34
2017-03-10T08:21:25.080Z,8.31
2017-03-10T08:22:25.844Z,8.28
2017-03-10T08:23:27.478Z,8.34
2017-03-10T08:24:28.470Z,8.3
2017-03-10T08:25:29.709Z,8.34
2017-03-10T08:26:30.409Z,8.44
2017-03-10T08:27:31.075Z,8.48
2017-03-10T08:28:31.747Z,8.53
2017-03-10T08:29:33.129Z,8.46
2017-03-10T08:30:34.803Z,8.46
2017-03-10T08:31:36.154Z,8.58
2017-03-10T08:32:36.825Z,8.63
2017-03-10T08:33:37.619Z,8.63
2017-03-10T08:34:38.296Z,8.61
2017-03-10T08:35:39.263Z,8.71
2017-03-10T08:36:40.041Z,8.71
2017-03-10T08:37:40.798Z,8.7
2017-03-10T08:38:41.450Z,8.73
2017-03-10T08:39:42.128Z,8.78
2017-03-10T08:40:42.805Z,8.79
2017-03-10T08:41:43.512Z,8.71
2017-03-10T08:42:44.242Z,8.71
2017-03-10T08:43:44.935Z,8.74
2017-03-10T08:44:45.599Z,8.81
2017-03-10T08:45:46.243Z,8.71
2017-03-10T08:46:46.905Z,8.76
2017-03-10T08:47:47.568Z,8.84
2017-03-10T08:48:48.231Z,8.79
2017-03-10T08:49:48.886Z,8.87
2017-03-10T08:50:49.541Z,8.78
2017-03-10T08:51:50.209Z,8.7
2017-03-10T08:52:50.873Z,8.79
2017-03-10T08:53:51.541Z,8.81
2017-03-10T08:54:52.198Z,8.74
2017-03-10T08:55:52.860Z,8.76
2017-03-10T08:56:53.561Z,8.78
2017-03-10T08:57:54.235Z,8.71
2017-03-10T08:58:54.885Z,8.66
2017-03-10T08:59:55.549Z,8.58
2017-03-10T09:00:56.204Z,8.6
2017-03-10T09:01:56.849Z,8.58
2017-03-10T09:02:57.529Z,8.63
2017-03-10T09:03:58.198Z,8.55
2017-03-10T09:04:58.890Z,8.64
2017-03-10T09:05:59.542Z,8.58
2017-03-10T09:07:00.201Z,8.56
2017-03-10T09:08:00.880Z,8.55
2017-03-10T09:09:01.530Z,8.46
2017-03-10T09:10:02.240Z,8.49
2017-03-10T09:11:02.923Z,8.49
2017-03-10T09:12:03.618Z,8.49
2017-03-10T09:13:04.284Z,8.61
2017-03-10T09:14:04.956Z,8.52
2017-03-10T09:15:05.675Z,8.6
2017-03-10T09:16:06.347Z,8.64
2017-03-10T09:17:07.011Z,8.64
2017-03-10T09:18:07.683Z,8.64
2017-03-10T09:19:08.370Z,8.61
2017-03-10T09:20:09.037Z,8.7
2017-03-10T09:21:09.696Z,8.66
2017-03-10T09:22:10.354Z,8.67
2017-03-10T09:23:11.018Z,8.58
2017-03-10T09:24:11.685Z,8.48
2017-03-10T09:25:12.351Z,8.58
2017-03-10T09:26:13.009Z,8.52
2017-03-10T09:27:13.689Z,8.42
2017-03-10T09:28:14.355Z,8.6
2017-03-10T09:29:15.026Z,8.61
2017-03-10T09:30:15.722Z,8.69
2017-03-10T09:31:16.376Z,8.82
2017-03-10T09:32:17.061Z,8.78
2017-03-10T09:33:17.717Z,8.84
2017-03-10T09:34:18.380Z,8.76
2017-03-10T09:35:19.112Z,8.76
2017-03-10T09:36:19.818Z,8.79
2017-03-10T09:37:20.537Z,8.76
2017-03-10T09:38:21.277Z,8.88
2017-03-10T09:39:22.003Z,8.88
2017-03-10T09:40:22.662Z,8.92
2017-03-10T09:41:23.350Z,8.84
2017-03-10T09:42:24.017Z,8.91
2017-03-10T09:43:24.763Z,9.06
2017-03-10T09:44:25.428Z,9.1
2017-03-10T09:45:26.096Z,9.02
2017-03-10T09:46:26.811Z,9
2017-03-10T09:47:27.489Z,9.06
2017-03-10T09:48:28.167Z,9.14
2017-03-10T09:49:28.825Z,9.26
2017-03-10T09:50:29.489Z,9.39
2017-03-10T09:51:30.158Z,9.34
2017-03-10T09:52:30.860Z,9.23
2017-03-10T09:53:31.523Z,9.14
2017-03-10T09:54:32.194Z,9.18
2017-03-10T09:55:32.868Z,9.03
2017-03-10T09:56:33.541Z,9.21
2017-03-10T09:57:34.212Z,9.21
2017-03-10T09:58:34.884Z,9.22
2017-03-10T09:59:35.562Z,9.23
2017-03-10T10:00:36.255Z,9.18
2017-03-10T10:01:36.930Z,9.32
2017-03-10T10:02:37.602Z,9.32
2017-03-10T10:03:38.275Z,9.41
2017-03-10T10:04:38.940Z,9.4
2017-03-10T10:05:39.612Z,9.4
2017-03-10T10:06:40.326Z,9.39
2017-03-10T10:07:41.004Z,9.48
2017-03-10T10:08:41.690Z,9.44
2017-03-10T10:09:42.382Z,9.48
2017-03-10T10:10:43.046Z,9.65
2017-03-10T10:11:43.754Z,9.64
2017-03-10T10:12:44.392Z,9.51
2017-03-10T10:13:45.053Z,9.47
2017-03-10T10:14:45.725Z,9.5
2017-03-10T10:15:46.396Z,9.47
2017-03-10T10:16:47.106Z,9.5
2017-03-10T10:17:47.766Z,9.54
2017-03-10T10:18:48.431Z,9.44
2017-03-10T10:19:49.077Z,9.55
2017-03-10T10:20:49.823Z,9.64
2017-03-10T10:21:50.509Z,9.65
2017-03-10T10:22:51.184Z,9.69
2017-03-10T10:23:51.861Z,9.66
2017-03-10T10:24:52.522Z,9.69
2017-03-10T10:25:53.192Z,9.73
2017-03-10T10:26:53.880Z,9.86
2017-03-10T10:27:54.536Z,9.94
2017-03-10T10:28:55.219Z,9.92
2017-03-10T10:29:55.880Z,9.95
2017-03-10T10:30:56.558Z,9.84
2017-03-10T10:31:57.245Z,9.94
2017-03-10T10:32:57.941Z,9.8
2017-03-10T10:33:58.603Z,9.87
2017-03-10T10:34:59.280Z,9.91
2017-03-10T10:35:59.931Z,9.94
2017-03-10T10:37:00.597Z,9.84
2017-03-10T10:38:01.293Z,9.77
2017-03-10T10:39:01.958Z,9.72
2017-03-10T10:40:02.637Z,9.87
2017-03-10T10:41:03.302Z,9.87
2017-03-10T10:42:03.969Z,9.92
2017-03-10T10:43:04.635Z,9.92
2017-03-10T10:44:05.299Z,9.84
2017-03-10T10:45:05.980Z,9.89
2017-03-10T10:46:06.645Z,9.91
2017-03-10T10:47:07.347Z,9.98
2017-03-10T10:48:07.994Z,9.98
2017-03-10T10:49:08.674Z,9.98
2017-03-10T10:50:09.333Z,9.91
2017-03-10T10:51:10.005Z,10.04
2017-03-10T10:52:10.668Z,10.01
2017-03-10T10:53:11.333Z,10.01
2017-03-10T10:54:11.998Z,10.04
2017-03-10T10:55:12.657Z,10.05
2017-03-10T10:56:13.320Z,10.04
2017-03-10T10:57:13.980Z,10.02
2017-03-10T10:58:14.689Z,10.09
2017-03-10T10:59:15.392Z,10.16
2017-03-10T11:00:16.056Z,10.17
2017-03-10T11:01:16.715Z,10.17
2017-03-10T11:02:17.401Z,10.22
2017-03-10T11:03:18.068Z,10.25
2017-03-10T11:04:18.738Z,10.2
2017-03-10T11:05:19.406Z,10.2
2017-03-10T11:06:20.077Z,10.23
2017-03-10T11:07:20.764Z,10.28
2017-03-10T11:08:21.444Z,10.35
2017-03-10T11:09:22.100Z,10.13
2017-03-10T11:10:22.803Z,10.16
2017-03-10T11:11:23.495Z,10.26
2017-03-10T11:12:24.149Z,10.17
2017-03-10T11:13:24.829Z,10.34
2017-03-10T11:14:25.505Z,10.41
2017-03-10T11:15:26.174Z,10.61
2017-03-10T11:16:26.852Z,10.63
2017-03-10T11:17:27.519Z,10.67
2017-03-10T11:18:28.168Z,10.56
2017-03-10T11:19:28.863Z,10.54
2017-03-10T11:20:29.520Z,10.46
2017-03-10T11:21:30.189Z,10.3
2017-03-10T11:22:30.863Z,10.34
2017-03-10T11:23:31.521Z,10.41
2017-03-10T11:24:32.181Z,10.37
2017-03-10T11:25:32.858Z,10.4
2017-03-10T11:26:33.521Z,10.37
2017-03-10T11:27:34.244Z,10.44
2017-03-10T11:28:34.924Z,10.37
2017-03-10T11:29:35.591Z,10.42
2017-03-10T11:30:36.242Z,10.4
2017-03-10T11:31:36.918Z,10.42
2017-03-10T11:32:37.580Z,10.38
2017-03-10T11:33:38.229Z,10.3
2017-03-10T11:34:38.899Z,10.25
2017-03-10T11:35:39.556Z,10.25
2017-03-10T11:36:40.210Z,10.07
2017-03-10T11:37:40.889Z,9.94
2017-03-10T11:38:41.544Z,9.98
2017-03-10T11:39:42.194Z,10.01
2017-03-10T11:40:42.909Z,9.95
2017-03-10T11:41:43.556Z,10.09
2017-03-10T11:42:44.208Z,10.15
2017-03-10T11:43:44.884Z,10.37
2017-03-10T11:44:45.554Z,10.19
2017-03-10T11:45:46.227Z,10.16
2017-03-10T11:46:46.919Z,10.2
2017-03-10T11:47:47.570Z,10.12
2017-03-10T11:48:48.261Z,10.16
2017-03-10T11:49:48.987Z,10.23
2017-03-10T11:50:49.635Z,10.37
2017-03-10T11:51:50.307Z,10.28
2017-03-10T11:52:50.987Z,10.41
2017-03-10T11:53:51.664Z,10.41
2017-03-10T11:54:52.351Z,10.4
2017-03-10T11:55:53.008Z,10.37
2017-03-10T11:56:53.752Z,10.23
2017-03-10T11:57:54.445Z,10.37
2017-03-10T11:58:55.113Z,10.26
2017-03-10T11:59:55.793Z,10.46
2017-03-10T12:00:56.458Z,10.42
2017-03-10T12:01:57.133Z,10.41
2017-03-10T12:02:57.801Z,10.48
2017-03-10T12:03:58.480Z,10.61
2017-03-10T12:04:59.155Z,10.64
2017-03-10T12:05:59.817Z,10.42
2017-03-10T12:07:00.495Z,10.48
2017-03-10T12:08:01.168Z,10.41
2017-03-10T12:09:01.843Z,10.41
2017-03-10T12:10:02.517Z,10.49
2017-03-10T12:11:03.199Z,10.54
2017-03-10T12:12:03.859Z,10.59
2017-03-10T12:13:04.526Z,10.4
2017-03-10T12:14:05.182Z,10.44
2017-03-10T12:15:05.840Z,10.53
2017-03-10T12:16:06.513Z,10.48
2017-03-10T12:17:07.185Z,10.33
2017-03-10T12:18:07.836Z,10.33
2017-03-10T12:19:08.509Z,10.3
2017-03-10T12:20:09.183Z,10.44
2017-03-10T12:21:09.850Z,10.4
2017-03-10T12:22:10.511Z,10.54
2017-03-10T12:23:11.195Z,10.51
2017-03-10T12:24:11.864Z,10.57
2017-03-10T12:25:12.541Z,10.68
2017-03-10T12:26:13.210Z,10.61
2017-03-10T12:27:13.891Z,10.69
2017-03-10T12:28:14.568Z,10.71
2017-03-10T12:29:15.232Z,10.64
2017-03-10T12:30:15.903Z,10.6
2017-03-10T12:31:16.576Z,10.64
2017-03-10T12:32:17.229Z,10.71
2017-03-10T12:33:17.908Z,10.64
2017-03-10T12:34:18.565Z,10.68
2017-03-10T12:35:19.264Z,10.64
2017-03-10T12:36:19.925Z,10.68
2017-03-10T12:37:20.587Z,10.68
2017-03-10T12:38:21.310Z,10.68
2017-03-10T12:39:21.982Z,10.57
2017-03-10T12:40:22.650Z,10.56
2017-03-10T12:41:23.327Z,10.59
2017-03-10T12:42:23.997Z,10.53
2017-03-10T12:43:24.663Z,10.51
2017-03-10T12:44:25.344Z,10.59
2017-03-10T12:45:26.012Z,10.59
2017-03-10T12:46:26.688Z,10.64
2017-03-10T12:47:27.337Z,10.61
2017-03-10T12:48:28.011Z,10.67
2017-03-10T12:49:28.676Z,10.72
2017-03-10T12:50:29.347Z,10.68
2017-03-10T12:51:30.019Z,10.68
2017-03-10T12:52:30.696Z,10.69
2017-03-10T12:53:31.398Z,10.69
2017-03-10T12:54:32.071Z,10.68
2017-03-10T12:55:32.743Z,10.57
2017-03-10T12:56:33.421Z,10.61
2017-03-10T12:57:34.103Z,10.67
2017-03-10T12:58:34.781Z,10.63
2017-03-10T12:59:35.485Z,10.67
2017-03-10T13:00:36.128Z,10.61
2017-03-10T13:01:36.797Z,10.64
2017-03-10T13:02:37.448Z,10.68
2017-03-10T13:03:38.166Z,10.63
2017-03-10T13:04:38.835Z,10.63
2017-03-10T13:05:39.508Z,10.6
2017-03-10T13:06:40.185Z,10.57
2017-03-10T13:07:40.842Z,10.53
2017-03-10T13:08:41.501Z,10.49
2017-03-10T13:09:42.172Z,10.51
2017-03-10T13:10:42.829Z,10.54
2017-03-10T13:11:43.504Z,10.6
2017-03-10T13:12:44.163Z,10.53
2017-03-10T13:13:44.854Z,10.53
2017-03-10T13:14:45.539Z,10.53
2017-03-10T13:15:46.211Z,10.44
2017-03-10T13:16:46.871Z,10.4
2017-03-10T13:17:47.529Z,10.54
2017-03-10T13:18:48.196Z,10.48
2017-03-10T13:19:48.847Z,10.57
2017-03-10T13:20:49.502Z,10.59
2017-03-10T13:21:50.166Z,10.68
2017-03-10T13:22:50.819Z,10.6
2017-03-10T13:23:51.488Z,10.67
2017-03-10T13:24:52.172Z,10.57
2017-03-10T13:25:52.852Z,10.67